sensor_id;sensor_type;location;lat;lon;timestamp;P1;durP1;ratioP1;P2;durP2;ratioP2
25191;SDS011;13143;50.924;5.320;2023-07-22T00:01:10;14.23;;;9.02;;
25191;SDS011;13143;50.924;5.320;2023-07-22T00:03:36;12.27;;;8.73;;
25191;SDS011;13143;50.924;5.320;2023-07-22T00:06:06;13.88;;;9.57;;
25191;SDS011;13143;50.924;5.320;2023-07-22T00:08:34;16.15;;;9.45;;
25191;SDS011;13143;50.924;5.320;2023-07-22T00:11:10;13.13;;;8.40;;
25191;SDS011;13143;50.924;5.320;2023-07-22T00:13:36;13.63;;;8.90;;
25191;SDS011;13143;50.924;5.320;2023-07-22T00:16:02;15.50;;;8.48;;
25191;SDS011;13143;50.924;5.320;2023-07-22T00:18:33;13.60;;;8.95;;
25191;SDS011;13143;50.924;5.320;2023-07-22T00:21:00;14.35;;;8.25;;
25191;SDS011;13143;50.924;5.320;2023-07-22T00:23:26;12.75;;;8.63;;
25191;SDS011;13143;50.924;5.320;2023-07-22T00:25:52;12.93;;;9.40;;
25191;SDS011;13143;50.924;5.320;2023-07-22T00:28:18;15.20;;;9.27;;
25191;SDS011;13143;50.924;5.320;2023-07-22T00:30:44;13.68;;;9.50;;
25191;SDS011;13143;50.924;5.320;2023-07-22T00:33:11;13.05;;;8.90;;
25191;SDS011;13143;50.924;5.320;2023-07-22T00:35:38;12.68;;;8.80;;
25191;SDS011;13143;50.924;5.320;2023-07-22T00:38:04;14.20;;;8.73;;
25191;SDS011;13143;50.924;5.320;2023-07-22T00:40:30;12.15;;;8.88;;
25191;SDS011;13143;50.924;5.320;2023-07-22T00:42:57;10.85;;;8.80;;
25191;SDS011;13143;50.924;5.320;2023-07-22T00:45:24;12.02;;;8.90;;
25191;SDS011;13143;50.924;5.320;2023-07-22T00:47:50;12.60;;;8.75;;
25191;SDS011;13143;50.924;5.320;2023-07-22T00:50:17;14.20;;;9.98;;
25191;SDS011;13143;50.924;5.320;2023-07-22T00:52:43;12.82;;;8.75;;
25191;SDS011;13143;50.924;5.320;2023-07-22T00:55:09;15.45;;;9.10;;
25191;SDS011;13143;50.924;5.320;2023-07-22T00:57:36;14.63;;;9.10;;
25191;SDS011;13143;50.924;5.320;2023-07-22T01:00:03;19.40;;;9.95;;
25191;SDS011;13143;50.924;5.320;2023-07-22T01:02:31;15.38;;;9.48;;
25191;SDS011;13143;50.924;5.320;2023-07-22T01:04:57;15.98;;;9.02;;
25191;SDS011;13143;50.924;5.320;2023-07-22T01:07:23;12.40;;;9.05;;
25191;SDS011;13143;50.924;5.320;2023-07-22T01:09:55;11.50;;;9.05;;
25191;SDS011;13143;50.924;5.320;2023-07-22T01:12:22;13.15;;;8.85;;
25191;SDS011;13143;50.924;5.320;2023-07-22T01:14:48;11.85;;;8.90;;
25191;SDS011;13143;50.924;5.320;2023-07-22T01:17:15;13.90;;;10.00;;
25191;SDS011;13143;50.924;5.320;2023-07-22T01:19:41;17.33;;;9.25;;
25191;SDS011;13143;50.924;5.320;2023-07-22T01:22:09;14.73;;;9.65;;
25191;SDS011;13143;50.924;5.320;2023-07-22T01:24:36;15.88;;;9.93;;
25191;SDS011;13143;50.924;5.320;2023-07-22T01:27:03;14.55;;;9.57;;
25191;SDS011;13143;50.924;5.320;2023-07-22T01:29:33;13.45;;;9.57;;
25191;SDS011;13143;50.924;5.320;2023-07-22T01:32:00;16.63;;;10.32;;
25191;SDS011;13143;50.924;5.320;2023-07-22T01:34:26;12.45;;;8.45;;
25191;SDS011;13143;50.924;5.320;2023-07-22T01:36:53;16.58;;;9.73;;
25191;SDS011;13143;50.924;5.320;2023-07-22T01:39:19;11.77;;;9.27;;
25191;SDS011;13143;50.924;5.320;2023-07-22T01:41:47;13.90;;;9.32;;
25191;SDS011;13143;50.924;5.320;2023-07-22T01:44:14;13.48;;;9.18;;
25191;SDS011;13143;50.924;5.320;2023-07-22T01:46:40;20.42;;;10.93;;
25191;SDS011;13143;50.924;5.320;2023-07-22T01:49:07;12.60;;;9.25;;
25191;SDS011;13143;50.924;5.320;2023-07-22T01:51:36;11.00;;;8.60;;
25191;SDS011;13143;50.924;5.320;2023-07-22T01:54:08;14.43;;;9.70;;
25191;SDS011;13143;50.924;5.320;2023-07-22T01:56:35;12.27;;;9.02;;
25191;SDS011;13143;50.924;5.320;2023-07-22T01:59:02;16.02;;;9.63;;
25191;SDS011;13143;50.924;5.320;2023-07-22T02:01:28;15.55;;;9.35;;
25191;SDS011;13143;50.924;5.320;2023-07-22T02:03:55;13.82;;;9.77;;
25191;SDS011;13143;50.924;5.320;2023-07-22T02:06:21;13.35;;;10.13;;
25191;SDS011;13143;50.924;5.320;2023-07-22T02:08:47;12.57;;;9.45;;
25191;SDS011;13143;50.924;5.320;2023-07-22T02:11:13;13.85;;;9.73;;
25191;SDS011;13143;50.924;5.320;2023-07-22T02:13:40;13.95;;;10.00;;
25191;SDS011;13143;50.924;5.320;2023-07-22T02:16:06;15.98;;;9.95;;
25191;SDS011;13143;50.924;5.320;2023-07-22T02:18:32;12.90;;;9.85;;
25191;SDS011;13143;50.924;5.320;2023-07-22T02:20:58;13.50;;;9.90;;
25191;SDS011;13143;50.924;5.320;2023-07-22T02:23:24;16.10;;;10.40;;
25191;SDS011;13143;50.924;5.320;2023-07-22T02:25:51;15.20;;;10.80;;
25191;SDS011;13143;50.924;5.320;2023-07-22T02:28:18;17.50;;;10.23;;
25191;SDS011;13143;50.924;5.320;2023-07-22T02:30:47;14.80;;;10.88;;
25191;SDS011;13143;50.924;5.320;2023-07-22T02:33:14;13.73;;;10.27;;
25191;SDS011;13143;50.924;5.320;2023-07-22T02:35:41;16.25;;;10.38;;
25191;SDS011;13143;50.924;5.320;2023-07-22T02:38:07;13.50;;;10.40;;
25191;SDS011;13143;50.924;5.320;2023-07-22T02:40:34;17.08;;;11.25;;
25191;SDS011;13143;50.924;5.320;2023-07-22T02:43:01;17.92;;;10.68;;
25191;SDS011;13143;50.924;5.320;2023-07-22T02:45:27;17.58;;;11.68;;
25191;SDS011;13143;50.924;5.320;2023-07-22T02:47:53;18.02;;;11.40;;
25191;SDS011;13143;50.924;5.320;2023-07-22T02:50:19;14.43;;;10.75;;
25191;SDS011;13143;50.924;5.320;2023-07-22T02:52:45;19.77;;;11.73;;
25191;SDS011;13143;50.924;5.320;2023-07-22T02:55:15;18.52;;;11.10;;
25191;SDS011;13143;50.924;5.320;2023-07-22T03:00:12;16.08;;;11.27;;
25191;SDS011;13143;50.924;5.320;2023-07-22T03:02:46;18.50;;;11.95;;
25191;SDS011;13143;50.924;5.320;2023-07-22T03:05:12;18.00;;;11.80;;
25191;SDS011;13143;50.924;5.320;2023-07-22T03:07:38;19.38;;;11.63;;
25191;SDS011;13143;50.924;5.320;2023-07-22T03:10:05;15.23;;;11.57;;
25191;SDS011;13143;50.924;5.320;2023-07-22T03:12:32;17.08;;;11.60;;
25191;SDS011;13143;50.924;5.320;2023-07-22T03:14:58;18.70;;;11.82;;
25191;SDS011;13143;50.924;5.320;2023-07-22T03:17:25;18.40;;;13.05;;
25191;SDS011;13143;50.924;5.320;2023-07-22T03:19:51;19.92;;;11.82;;
25191;SDS011;13143;50.924;5.320;2023-07-22T03:22:17;19.23;;;11.95;;
25191;SDS011;13143;50.924;5.320;2023-07-22T03:24:44;18.17;;;11.98;;
25191;SDS011;13143;50.924;5.320;2023-07-22T03:27:11;19.25;;;12.40;;
25191;SDS011;13143;50.924;5.320;2023-07-22T03:29:39;17.67;;;13.18;;
25191;SDS011;13143;50.924;5.320;2023-07-22T03:32:06;19.52;;;12.68;;
25191;SDS011;13143;50.924;5.320;2023-07-22T03:34:32;21.13;;;12.73;;
25191;SDS011;13143;50.924;5.320;2023-07-22T03:36:59;20.65;;;13.07;;
25191;SDS011;13143;50.924;5.320;2023-07-22T03:39:25;20.70;;;12.32;;
25191;SDS011;13143;50.924;5.320;2023-07-22T03:41:51;19.13;;;13.13;;
25191;SDS011;13143;50.924;5.320;2023-07-22T03:44:17;20.10;;;13.07;;
25191;SDS011;13143;50.924;5.320;2023-07-22T03:46:43;18.45;;;12.85;;
25191;SDS011;13143;50.924;5.320;2023-07-22T03:49:09;17.73;;;13.10;;
25191;SDS011;13143;50.924;5.320;2023-07-22T03:51:35;22.00;;;13.18;;
25191;SDS011;13143;50.924;5.320;2023-07-22T03:54:01;20.35;;;12.98;;
25191;SDS011;13143;50.924;5.320;2023-07-22T03:56:28;22.15;;;12.73;;
25191;SDS011;13143;50.924;5.320;2023-07-22T03:58:54;21.15;;;13.48;;
25191;SDS011;13143;50.924;5.320;2023-07-22T04:01:20;23.05;;;13.32;;
25191;SDS011;13143;50.924;5.320;2023-07-22T04:03:46;21.40;;;13.10;;
25191;SDS011;13143;50.924;5.320;2023-07-22T04:06:13;23.02;;;13.35;;
25191;SDS011;13143;50.924;5.320;2023-07-22T04:08:39;21.55;;;13.57;;
25191;SDS011;13143;50.924;5.320;2023-07-22T04:11:05;22.00;;;13.02;;
25191;SDS011;13143;50.924;5.320;2023-07-22T04:13:32;23.55;;;13.15;;
25191;SDS011;13143;50.924;5.320;2023-07-22T04:15:58;24.48;;;13.98;;
25191;SDS011;13143;50.924;5.320;2023-07-22T04:18:24;21.90;;;13.68;;
25191;SDS011;13143;50.924;5.320;2023-07-22T04:20:55;21.77;;;13.15;;
25191;SDS011;13143;50.924;5.320;2023-07-22T04:23:22;25.85;;;14.00;;
25191;SDS011;13143;50.924;5.320;2023-07-22T04:25:50;26.77;;;13.55;;
25191;SDS011;13143;50.924;5.320;2023-07-22T04:28:16;22.10;;;13.88;;
25191;SDS011;13143;50.924;5.320;2023-07-22T04:30:43;25.13;;;15.48;;
25191;SDS011;13143;50.924;5.320;2023-07-22T04:33:20;29.33;;;13.90;;
25191;SDS011;13143;50.924;5.320;2023-07-22T04:35:46;22.80;;;14.30;;
25191;SDS011;13143;50.924;5.320;2023-07-22T04:38:12;22.95;;;14.35;;
25191;SDS011;13143;50.924;5.320;2023-07-22T04:40:42;21.88;;;13.55;;
25191;SDS011;13143;50.924;5.320;2023-07-22T04:43:09;21.15;;;13.98;;
25191;SDS011;13143;50.924;5.320;2023-07-22T04:45:35;20.35;;;13.35;;
25191;SDS011;13143;50.924;5.320;2023-07-22T04:48:01;22.13;;;14.20;;
25191;SDS011;13143;50.924;5.320;2023-07-22T04:50:28;25.50;;;14.90;;
25191;SDS011;13143;50.924;5.320;2023-07-22T04:52:54;19.80;;;13.25;;
25191;SDS011;13143;50.924;5.320;2023-07-22T04:55:20;25.23;;;14.90;;
25191;SDS011;13143;50.924;5.320;2023-07-22T04:57:47;22.95;;;14.63;;
25191;SDS011;13143;50.924;5.320;2023-07-22T05:00:13;23.48;;;14.55;;
25191;SDS011;13143;50.924;5.320;2023-07-22T05:02:42;28.40;;;14.55;;
25191;SDS011;13143;50.924;5.320;2023-07-22T05:05:09;25.33;;;14.73;;
25191;SDS011;13143;50.924;5.320;2023-07-22T05:07:35;25.30;;;14.77;;
25191;SDS011;13143;50.924;5.320;2023-07-22T05:10:02;22.65;;;14.48;;
25191;SDS011;13143;50.924;5.320;2023-07-22T05:12:28;25.15;;;15.00;;
25191;SDS011;13143;50.924;5.320;2023-07-22T05:14:54;23.60;;;15.10;;
25191;SDS011;13143;50.924;5.320;2023-07-22T05:17:20;24.00;;;14.85;;
25191;SDS011;13143;50.924;5.320;2023-07-22T05:19:46;27.90;;;15.70;;
25191;SDS011;13143;50.924;5.320;2023-07-22T05:22:14;24.02;;;14.80;;
25191;SDS011;13143;50.924;5.320;2023-07-22T05:24:40;29.20;;;15.98;;
25191;SDS011;13143;50.924;5.320;2023-07-22T05:27:06;27.02;;;15.75;;
25191;SDS011;13143;50.924;5.320;2023-07-22T05:29:33;24.23;;;15.43;;
25191;SDS011;13143;50.924;5.320;2023-07-22T05:31:59;27.83;;;15.43;;
25191;SDS011;13143;50.924;5.320;2023-07-22T05:34:25;25.48;;;16.42;;
25191;SDS011;13143;50.924;5.320;2023-07-22T05:36:51;27.58;;;14.98;;
25191;SDS011;13143;50.924;5.320;2023-07-22T05:39:17;27.92;;;14.93;;
25191;SDS011;13143;50.924;5.320;2023-07-22T05:41:44;25.52;;;14.27;;
25191;SDS011;13143;50.924;5.320;2023-07-22T05:44:10;22.25;;;13.90;;
25191;SDS011;13143;50.924;5.320;2023-07-22T05:46:36;23.80;;;14.55;;
25191;SDS011;13143;50.924;5.320;2023-07-22T05:49:04;26.50;;;14.95;;
25191;SDS011;13143;50.924;5.320;2023-07-22T05:51:30;28.48;;;15.02;;
25191;SDS011;13143;50.924;5.320;2023-07-22T05:53:56;27.48;;;15.27;;
25191;SDS011;13143;50.924;5.320;2023-07-22T05:56:23;26.05;;;14.13;;
25191;SDS011;13143;50.924;5.320;2023-07-22T05:58:49;24.52;;;15.45;;
25191;SDS011;13143;50.924;5.320;2023-07-22T06:01:15;24.90;;;15.32;;
25191;SDS011;13143;50.924;5.320;2023-07-22T06:03:41;28.48;;;14.40;;
25191;SDS011;13143;50.924;5.320;2023-07-22T06:06:09;27.63;;;15.13;;
25191;SDS011;13143;50.924;5.320;2023-07-22T06:08:36;25.98;;;15.02;;
25191;SDS011;13143;50.924;5.320;2023-07-22T06:11:02;27.73;;;15.25;;
25191;SDS011;13143;50.924;5.320;2023-07-22T06:13:28;26.02;;;14.43;;
25191;SDS011;13143;50.924;5.320;2023-07-22T06:15:54;32.67;;;15.10;;
25191;SDS011;13143;50.924;5.320;2023-07-22T06:18:21;30.85;;;13.90;;
25191;SDS011;13143;50.924;5.320;2023-07-22T06:20:47;28.70;;;15.40;;
25191;SDS011;13143;50.924;5.320;2023-07-22T06:23:13;34.38;;;14.77;;
25191;SDS011;13143;50.924;5.320;2023-07-22T06:25:39;29.00;;;15.20;;
25191;SDS011;13143;50.924;5.320;2023-07-22T06:28:06;31.48;;;14.82;;
25191;SDS011;13143;50.924;5.320;2023-07-22T06:30:32;25.90;;;14.18;;
25191;SDS011;13143;50.924;5.320;2023-07-22T06:32:58;28.00;;;14.90;;
25191;SDS011;13143;50.924;5.320;2023-07-22T06:35:24;28.77;;;14.82;;
25191;SDS011;13143;50.924;5.320;2023-07-22T06:37:50;22.60;;;13.93;;
25191;SDS011;13143;50.924;5.320;2023-07-22T06:40:17;28.85;;;14.52;;
25191;SDS011;13143;50.924;5.320;2023-07-22T06:42:43;28.25;;;15.10;;
25191;SDS011;13143;50.924;5.320;2023-07-22T06:45:09;24.85;;;13.82;;
25191;SDS011;13143;50.924;5.320;2023-07-22T06:47:35;37.55;;;15.07;;
25191;SDS011;13143;50.924;5.320;2023-07-22T06:50:02;32.42;;;14.50;;
25191;SDS011;13143;50.924;5.320;2023-07-22T06:52:30;27.17;;;14.15;;
25191;SDS011;13143;50.924;5.320;2023-07-22T06:54:57;27.42;;;14.38;;
25191;SDS011;13143;50.924;5.320;2023-07-22T06:57:23;30.15;;;13.95;;
25191;SDS011;13143;50.924;5.320;2023-07-22T06:59:54;25.65;;;13.60;;
25191;SDS011;13143;50.924;5.320;2023-07-22T07:02:20;26.52;;;12.75;;
25191;SDS011;13143;50.924;5.320;2023-07-22T07:04:47;27.05;;;13.55;;
25191;SDS011;13143;50.924;5.320;2023-07-22T07:07:13;36.53;;;14.48;;
25191;SDS011;13143;50.924;5.320;2023-07-22T07:09:41;27.67;;;13.63;;
25191;SDS011;13143;50.924;5.320;2023-07-22T07:12:08;26.35;;;12.55;;
25191;SDS011;13143;50.924;5.320;2023-07-22T07:14:34;31.90;;;14.05;;
25191;SDS011;13143;50.924;5.320;2023-07-22T07:17:01;28.40;;;13.02;;
25191;SDS011;13143;50.924;5.320;2023-07-22T07:19:28;22.83;;;12.73;;
25191;SDS011;13143;50.924;5.320;2023-07-22T07:21:54;29.10;;;12.25;;
25191;SDS011;13143;50.924;5.320;2023-07-22T07:24:20;26.55;;;12.77;;
25191;SDS011;13143;50.924;5.320;2023-07-22T07:26:47;28.27;;;13.23;;
25191;SDS011;13143;50.924;5.320;2023-07-22T07:29:13;24.63;;;12.98;;
25191;SDS011;13143;50.924;5.320;2023-07-22T07:31:39;23.90;;;12.20;;
25191;SDS011;13143;50.924;5.320;2023-07-22T07:34:05;27.00;;;13.50;;
25191;SDS011;13143;50.924;5.320;2023-07-22T07:36:32;22.52;;;11.45;;
25191;SDS011;13143;50.924;5.320;2023-07-22T07:38:59;22.10;;;11.00;;
25191;SDS011;13143;50.924;5.320;2023-07-22T07:41:25;27.95;;;11.85;;
25191;SDS011;13143;50.924;5.320;2023-07-22T07:43:51;27.23;;;11.90;;
25191;SDS011;13143;50.924;5.320;2023-07-22T07:48:49;27.40;;;13.10;;
25191;SDS011;13143;50.924;5.320;2023-07-22T07:51:29;26.20;;;11.00;;
25191;SDS011;13143;50.924;5.320;2023-07-22T07:53:56;24.63;;;10.20;;
25191;SDS011;13143;50.924;5.320;2023-07-22T07:56:24;25.55;;;11.18;;
25191;SDS011;13143;50.924;5.320;2023-07-22T07:58:51;23.02;;;10.07;;
25191;SDS011;13143;50.924;5.320;2023-07-22T08:01:19;21.73;;;10.23;;
25191;SDS011;13143;50.924;5.320;2023-07-22T08:03:45;24.23;;;10.05;;
25191;SDS011;13143;50.924;5.320;2023-07-22T08:06:11;17.83;;;9.68;;
25191;SDS011;13143;50.924;5.320;2023-07-22T08:08:38;22.67;;;10.02;;
25191;SDS011;13143;50.924;5.320;2023-07-22T08:11:09;19.10;;;9.50;;
25191;SDS011;13143;50.924;5.320;2023-07-22T08:13:39;21.50;;;9.02;;
25191;SDS011;13143;50.924;5.320;2023-07-22T08:16:07;18.38;;;7.97;;
25191;SDS011;13143;50.924;5.320;2023-07-22T08:18:34;15.82;;;7.32;;
25191;SDS011;13143;50.924;5.320;2023-07-22T08:21:02;19.17;;;8.20;;
25191;SDS011;13143;50.924;5.320;2023-07-22T08:23:31;21.60;;;8.23;;
25191;SDS011;13143;50.924;5.320;2023-07-22T08:25:58;16.17;;;7.43;;
25191;SDS011;13143;50.924;5.320;2023-07-22T08:28:24;20.00;;;8.20;;
25191;SDS011;13143;50.924;5.320;2023-07-22T08:30:50;14.85;;;6.85;;
25191;SDS011;13143;50.924;5.320;2023-07-22T08:33:20;11.98;;;5.60;;
25191;SDS011;13143;50.924;5.320;2023-07-22T08:35:47;16.35;;;6.40;;
25191;SDS011;13143;50.924;5.320;2023-07-22T08:38:13;15.70;;;6.45;;
25191;SDS011;13143;50.924;5.320;2023-07-22T08:40:40;15.10;;;6.35;;
25191;SDS011;13143;50.924;5.320;2023-07-22T08:43:07;12.98;;;6.47;;
25191;SDS011;13143;50.924;5.320;2023-07-22T08:45:36;15.90;;;6.07;;
25191;SDS011;13143;50.924;5.320;2023-07-22T08:48:04;13.75;;;5.82;;
25191;SDS011;13143;50.924;5.320;2023-07-22T08:50:54;12.07;;;6.22;;
25191;SDS011;13143;50.924;5.320;2023-07-22T08:53:24;15.82;;;6.47;;
25191;SDS011;13143;50.924;5.320;2023-07-22T08:55:51;14.50;;;6.07;;
25191;SDS011;13143;50.924;5.320;2023-07-22T08:58:17;14.73;;;5.65;;
25191;SDS011;13143;50.924;5.320;2023-07-22T09:00:44;16.35;;;5.75;;
25191;SDS011;13143;50.924;5.320;2023-07-22T09:03:11;11.35;;;5.93;;
25191;SDS011;13143;50.924;5.320;2023-07-22T09:05:37;15.70;;;5.65;;
25191;SDS011;13143;50.924;5.320;2023-07-22T09:08:04;14.80;;;6.50;;
25191;SDS011;13143;50.924;5.320;2023-07-22T09:10:32;12.38;;;5.57;;
25191;SDS011;13143;50.924;5.320;2023-07-22T09:12:59;13.70;;;6.00;;
25191;SDS011;13143;50.924;5.320;2023-07-22T09:15:26;13.63;;;5.70;;
25191;SDS011;13143;50.924;5.320;2023-07-22T09:17:53;11.63;;;4.80;;
25191;SDS011;13143;50.924;5.320;2023-07-22T09:20:20;9.48;;;4.38;;
25191;SDS011;13143;50.924;5.320;2023-07-22T09:22:47;9.93;;;4.15;;
25191;SDS011;13143;50.924;5.320;2023-07-22T09:27:45;9.57;;;3.85;;
25191;SDS011;13143;50.924;5.320;2023-07-22T09:30:21;11.07;;;3.72;;
25191;SDS011;13143;50.924;5.320;2023-07-22T09:32:50;9.27;;;3.88;;
25191;SDS011;13143;50.924;5.320;2023-07-22T09:35:17;8.48;;;3.80;;
25191;SDS011;13143;50.924;5.320;2023-07-22T09:37:44;10.48;;;3.53;;
25191;SDS011;13143;50.924;5.320;2023-07-22T09:40:14;13.45;;;3.40;;
25191;SDS011;13143;50.924;5.320;2023-07-22T09:42:47;8.97;;;3.80;;
25191;SDS011;13143;50.924;5.320;2023-07-22T09:45:18;8.63;;;4.03;;
25191;SDS011;13143;50.924;5.320;2023-07-22T09:47:54;8.98;;;3.72;;
25191;SDS011;13143;50.924;5.320;2023-07-22T09:50:24;9.00;;;3.63;;
25191;SDS011;13143;50.924;5.320;2023-07-22T09:52:55;9.07;;;3.58;;
25191;SDS011;13143;50.924;5.320;2023-07-22T09:55:27;11.05;;;3.70;;
25191;SDS011;13143;50.924;5.320;2023-07-22T09:57:58;8.45;;;4.25;;
25191;SDS011;13143;50.924;5.320;2023-07-22T10:00:25;6.60;;;3.20;;
25191;SDS011;13143;50.924;5.320;2023-07-22T10:02:57;7.25;;;3.35;;
25191;SDS011;13143;50.924;5.320;2023-07-22T10:05:25;7.85;;;3.78;;
25191;SDS011;13143;50.924;5.320;2023-07-22T10:07:53;7.90;;;3.63;;
25191;SDS011;13143;50.924;5.320;2023-07-22T10:10:35;6.57;;;3.42;;
25191;SDS011;13143;50.924;5.320;2023-07-22T10:13:03;7.00;;;3.25;;
25191;SDS011;13143;50.924;5.320;2023-07-22T10:15:30;6.72;;;3.22;;
25191;SDS011;13143;50.924;5.320;2023-07-22T10:18:02;8.05;;;3.70;;
25191;SDS011;13143;50.924;5.320;2023-07-22T10:20:30;6.57;;;3.20;;
25191;SDS011;13143;50.924;5.320;2023-07-22T10:23:00;8.43;;;3.10;;
25191;SDS011;13143;50.924;5.320;2023-07-22T10:25:26;5.35;;;3.08;;
25191;SDS011;13143;50.924;5.320;2023-07-22T10:27:53;5.03;;;2.90;;
25191;SDS011;13143;50.924;5.320;2023-07-22T10:30:20;7.15;;;3.05;;
25191;SDS011;13143;50.924;5.320;2023-07-22T10:32:47;6.30;;;2.50;;
25191;SDS011;13143;50.924;5.320;2023-07-22T10:35:17;4.93;;;2.70;;
25191;SDS011;13143;50.924;5.320;2023-07-22T10:38:09;5.00;;;3.17;;
25191;SDS011;13143;50.924;5.320;2023-07-22T10:43:17;4.80;;;2.33;;
25191;SDS011;13143;50.924;5.320;2023-07-22T10:45:53;7.90;;;2.70;;
25191;SDS011;13143;50.924;5.320;2023-07-22T10:48:22;7.93;;;2.70;;
25191;SDS011;13143;50.924;5.320;2023-07-22T10:50:52;4.20;;;2.80;;
25191;SDS011;13143;50.924;5.320;2023-07-22T10:58:55;4.63;;;2.72;;
25191;SDS011;13143;50.924;5.320;2023-07-22T11:12:09;5.88;;;2.78;;
25191;SDS011;13143;50.924;5.320;2023-07-22T11:14:39;6.45;;;3.13;;
25191;SDS011;13143;50.924;5.320;2023-07-22T11:17:16;4.65;;;3.00;;
25191;SDS011;13143;50.924;5.320;2023-07-22T11:19:43;8.43;;;3.30;;
25191;SDS011;13143;50.924;5.320;2023-07-22T11:22:10;5.00;;;2.95;;
25191;SDS011;13143;50.924;5.320;2023-07-22T11:24:36;7.95;;;2.80;;
25191;SDS011;13143;50.924;5.320;2023-07-22T11:27:03;8.70;;;3.20;;
25191;SDS011;13143;50.924;5.320;2023-07-22T11:29:31;6.50;;;2.90;;
25191;SDS011;13143;50.924;5.320;2023-07-22T11:31:57;6.05;;;3.05;;
25191;SDS011;13143;50.924;5.320;2023-07-22T11:34:24;5.60;;;2.90;;
25191;SDS011;13143;50.924;5.320;2023-07-22T11:36:51;7.57;;;3.20;;
25191;SDS011;13143;50.924;5.320;2023-07-22T11:39:19;4.90;;;3.25;;
25191;SDS011;13143;50.924;5.320;2023-07-22T11:41:47;6.78;;;3.00;;
25191;SDS011;13143;50.924;5.320;2023-07-22T11:44:15;4.28;;;2.75;;
25191;SDS011;13143;50.924;5.320;2023-07-22T11:46:59;7.20;;;3.03;;
25191;SDS011;13143;50.924;5.320;2023-07-22T11:49:28;5.55;;;2.70;;
25191;SDS011;13143;50.924;5.320;2023-07-22T11:51:59;4.97;;;2.58;;
25191;SDS011;13143;50.924;5.320;2023-07-22T11:54:26;9.98;;;2.97;;
25191;SDS011;13143;50.924;5.320;2023-07-22T11:56:53;5.85;;;2.70;;
25191;SDS011;13143;50.924;5.320;2023-07-22T11:59:32;3.97;;;2.30;;
25191;SDS011;13143;50.924;5.320;2023-07-22T12:02:03;5.00;;;2.55;;
25191;SDS011;13143;50.924;5.320;2023-07-22T12:04:33;5.10;;;3.20;;
25191;SDS011;13143;50.924;5.320;2023-07-22T12:07:00;6.32;;;2.53;;
25191;SDS011;13143;50.924;5.320;2023-07-22T12:09:27;4.78;;;2.60;;
25191;SDS011;13143;50.924;5.320;2023-07-22T12:11:57;6.85;;;2.33;;
25191;SDS011;13143;50.924;5.320;2023-07-22T12:14:31;4.55;;;2.28;;
25191;SDS011;13143;50.924;5.320;2023-07-22T12:17:00;2.75;;;1.90;;
25191;SDS011;13143;50.924;5.320;2023-07-22T12:19:29;9.98;;;2.15;;
25191;SDS011;13143;50.924;5.320;2023-07-22T12:21:56;6.57;;;2.45;;
25191;SDS011;13143;50.924;5.320;2023-07-22T12:24:22;6.68;;;2.25;;
25191;SDS011;13143;50.924;5.320;2023-07-22T12:26:48;5.07;;;2.05;;
25191;SDS011;13143;50.924;5.320;2023-07-22T12:29:14;5.70;;;2.35;;
25191;SDS011;13143;50.924;5.320;2023-07-22T12:31:40;3.63;;;2.05;;
25191;SDS011;13143;50.924;5.320;2023-07-22T12:34:06;5.45;;;2.20;;
25191;SDS011;13143;50.924;5.320;2023-07-22T12:36:33;4.53;;;2.40;;
25191;SDS011;13143;50.924;5.320;2023-07-22T12:38:59;7.20;;;2.05;;
25191;SDS011;13143;50.924;5.320;2023-07-22T12:41:25;7.00;;;2.58;;
25191;SDS011;13143;50.924;5.320;2023-07-22T12:43:51;5.68;;;2.40;;
25191;SDS011;13143;50.924;5.320;2023-07-22T12:46:18;4.30;;;2.20;;
25191;SDS011;13143;50.924;5.320;2023-07-22T12:48:44;3.85;;;2.20;;
25191;SDS011;13143;50.924;5.320;2023-07-22T12:51:10;2.85;;;2.33;;
25191;SDS011;13143;50.924;5.320;2023-07-22T12:53:41;13.63;;;3.10;;
25191;SDS011;13143;50.924;5.320;2023-07-22T12:56:07;3.40;;;2.33;;
25191;SDS011;13143;50.924;5.320;2023-07-22T12:58:33;3.17;;;2.60;;
25191;SDS011;13143;50.924;5.320;2023-07-22T13:01:00;4.38;;;2.50;;
25191;SDS011;13143;50.924;5.320;2023-07-22T13:03:26;9.50;;;2.50;;
25191;SDS011;13143;50.924;5.320;2023-07-22T13:05:52;3.90;;;2.30;;
25191;SDS011;13143;50.924;5.320;2023-07-22T13:08:18;5.25;;;2.42;;
25191;SDS011;13143;50.924;5.320;2023-07-22T13:10:44;6.57;;;2.75;;
25191;SDS011;13143;50.924;5.320;2023-07-22T13:13:12;4.40;;;3.10;;
25191;SDS011;13143;50.924;5.320;2023-07-22T13:15:38;6.20;;;2.80;;
25191;SDS011;13143;50.924;5.320;2023-07-22T13:18:04;5.28;;;2.72;;
25191;SDS011;13143;50.924;5.320;2023-07-22T13:20:31;4.47;;;2.95;;
25191;SDS011;13143;50.924;5.320;2023-07-22T13:22:57;6.07;;;3.10;;
25191;SDS011;13143;50.924;5.320;2023-07-22T13:25:23;6.30;;;2.97;;
25191;SDS011;13143;50.924;5.320;2023-07-22T13:27:49;6.28;;;2.88;;
25191;SDS011;13143;50.924;5.320;2023-07-22T13:30:16;3.88;;;2.63;;
25191;SDS011;13143;50.924;5.320;2023-07-22T13:32:42;7.22;;;3.35;;
25191;SDS011;13143;50.924;5.320;2023-07-22T13:35:09;8.55;;;2.92;;
25191;SDS011;13143;50.924;5.320;2023-07-22T13:37:35;5.25;;;3.47;;
25191;SDS011;13143;50.924;5.320;2023-07-22T13:40:02;7.13;;;3.40;;
25191;SDS011;13143;50.924;5.320;2023-07-22T13:42:33;5.30;;;3.60;;
25191;SDS011;13143;50.924;5.320;2023-07-22T13:45:00;7.05;;;3.38;;
25191;SDS011;13143;50.924;5.320;2023-07-22T13:47:26;5.55;;;3.55;;
25191;SDS011;13143;50.924;5.320;2023-07-22T13:49:52;6.18;;;3.20;;
25191;SDS011;13143;50.924;5.320;2023-07-22T13:52:18;7.30;;;3.60;;
25191;SDS011;13143;50.924;5.320;2023-07-22T13:54:44;5.53;;;2.97;;
25191;SDS011;13143;50.924;5.320;2023-07-22T13:57:11;5.93;;;3.42;;
25191;SDS011;13143;50.924;5.320;2023-07-22T13:59:38;5.55;;;4.05;;
25191;SDS011;13143;50.924;5.320;2023-07-22T14:02:04;6.90;;;3.78;;
25191;SDS011;13143;50.924;5.320;2023-07-22T14:04:30;5.60;;;3.30;;
25191;SDS011;13143;50.924;5.320;2023-07-22T14:06:56;5.35;;;3.53;;
25191;SDS011;13143;50.924;5.320;2023-07-22T14:09:23;6.97;;;3.35;;
25191;SDS011;13143;50.924;5.320;2023-07-22T14:11:49;5.95;;;3.90;;
25191;SDS011;13143;50.924;5.320;2023-07-22T14:14:15;6.57;;;3.35;;
25191;SDS011;13143;50.924;5.320;2023-07-22T14:16:41;6.60;;;3.40;;
25191;SDS011;13143;50.924;5.320;2023-07-22T14:19:07;7.43;;;3.58;;
25191;SDS011;13143;50.924;5.320;2023-07-22T14:21:33;6.75;;;3.33;;
25191;SDS011;13143;50.924;5.320;2023-07-22T14:24:00;9.48;;;3.63;;
25191;SDS011;13143;50.924;5.320;2023-07-22T14:26:26;4.43;;;3.25;;
25191;SDS011;13143;50.924;5.320;2023-07-22T14:28:52;8.60;;;3.30;;
25191;SDS011;13143;50.924;5.320;2023-07-22T14:31:18;8.50;;;2.97;;
25191;SDS011;13143;50.924;5.320;2023-07-22T14:33:44;4.72;;;2.78;;
25191;SDS011;13143;50.924;5.320;2023-07-22T14:36:10;5.75;;;2.78;;
25191;SDS011;13143;50.924;5.320;2023-07-22T14:38:37;6.07;;;2.72;;
25191;SDS011;13143;50.924;5.320;2023-07-22T14:41:03;7.43;;;2.70;;
25191;SDS011;13143;50.924;5.320;2023-07-22T14:43:29;7.57;;;3.05;;
25191;SDS011;13143;50.924;5.320;2023-07-22T14:45:55;4.35;;;2.75;;
25191;SDS011;13143;50.924;5.320;2023-07-22T14:48:21;8.98;;;2.65;;
25191;SDS011;13143;50.924;5.320;2023-07-22T14:50:48;5.00;;;2.60;;
25191;SDS011;13143;50.924;5.320;2023-07-22T14:53:14;5.03;;;2.50;;
25191;SDS011;13143;50.924;5.320;2023-07-22T14:55:40;5.10;;;2.50;;
25191;SDS011;13143;50.924;5.320;2023-07-22T14:58:06;3.88;;;2.28;;
25191;SDS011;13143;50.924;5.320;2023-07-22T15:00:32;6.53;;;2.55;;